createdAt,value
2022-11-21T00:00:30.820Z,100087.84
2022-11-21T00:03:01.523Z,100089.41
2022-11-21T00:05:29.371Z,100094.50
2022-11-21T00:07:56.671Z,100096.88
2022-11-21T00:10:23.907Z,100099.63
2022-11-21T00:12:57.456Z,100099.19
2022-11-21T00:15:26.292Z,100107.47
2022-11-21T00:17:53.154Z,100101.63
2022-11-21T00:20:21.206Z,100104.38
2022-11-21T00:22:48.392Z,100103.94
2022-11-21T00:25:15.439Z,100112.56
2022-11-21T00:27:41.944Z,100118.78
2022-11-21T00:30:13.832Z,100116.38
2022-11-21T00:32:40.300Z,100123.84
2022-11-21T00:35:07.442Z,100117.97
2022-11-21T00:37:34.740Z,100116.38
2022-11-21T00:40:01.286Z,100116.38
2022-11-21T00:42:27.783Z,100113.22
2022-11-21T00:44:54.209Z,100108.50
2022-11-21T00:47:20.692Z,100112.06
2022-11-21T00:49:47.153Z,100109.69
2022-11-21T00:52:13.835Z,100114.78
2022-11-21T00:54:40.304Z,100113.22
2022-11-21T00:57:06.810Z,100113.22
2022-11-21T00:59:33.571Z,100092.34
2022-11-21T01:02:00.008Z,100106.50
2022-11-21T01:04:26.861Z,100108.50
2022-11-21T01:06:54.051Z,100122.22
2022-11-21T01:09:20.521Z,100119.47
2022-11-21T01:11:46.994Z,100128.28
2022-11-21T01:14:13.539Z,100121.13
2022-11-21T01:16:39.995Z,100116.06
2022-11-21T01:19:06.544Z,100120.88
2022-11-21T01:21:33.101Z,100126.38
2022-11-21T01:24:01.033Z,100133.44
2022-11-21T01:26:28.795Z,100124.84
2022-11-21T01:28:55.304Z,100133.88
2022-11-21T01:31:24.590Z,100135.44
2022-11-21T01:33:51.404Z,100139.34
2022-11-21T01:36:24.771Z,100144.00
2022-11-21T01:38:53.178Z,100149.50
2022-11-21T01:41:22.612Z,100150.28
2022-11-21T01:43:50.161Z,100142.06
2022-11-21T01:46:19.686Z,100140.16
2022-11-21T01:48:58.582Z,100142.06
2022-11-21T01:51:38.377Z,100144.00
2022-11-21T01:54:20.125Z,100142.78
2022-11-21T01:56:55.436Z,100146.00
2022-11-21T01:59:29.616Z,100136.59
2022-11-21T02:01:59.439Z,100137.34
2022-11-21T02:04:30.501Z,100134.97
2022-11-21T02:06:58.408Z,100139.25
2022-11-21T02:09:25.511Z,100148.25
2022-11-21T02:11:58.369Z,100143.88
2022-11-21T02:14:26.329Z,100159.97
2022-11-21T02:16:56.317Z,100155.31
2022-11-21T02:19:33.860Z,100147.81
2022-11-21T02:22:12.738Z,100156.84
2022-11-21T02:25:00.725Z,100149.75
2022-11-21T02:27:28.096Z,100146.25
2022-11-21T02:29:54.959Z,100143.44
2022-11-21T02:32:23.417Z,100153.19
2022-11-21T02:34:49.948Z,100159.88
2022-11-21T02:37:17.970Z,100148.09
2022-11-21T02:39:47.546Z,100152.03
2022-11-21T02:42:24.131Z,100145.38
2022-11-21T02:45:05.767Z,100147.75
2022-11-21T02:47:34.045Z,100143.44
2022-11-21T02:50:07.430Z,100146.50
2022-11-21T02:52:33.984Z,100154.00
2022-11-21T02:55:00.380Z,100152.72
2022-11-21T02:57:26.806Z,100153.81
2022-11-21T02:59:53.236Z,100153.06
2022-11-21T03:02:19.655Z,100150.38
2022-11-21T03:04:46.099Z,100161.69
2022-11-21T03:07:12.656Z,100161.34
2022-11-21T03:09:39.143Z,100147.66
2022-11-21T03:12:07.260Z,100155.50
2022-11-21T03:14:34.989Z,100149.25
2022-11-21T03:17:02.050Z,100152.75
2022-11-21T03:19:28.522Z,100152.72
2022-11-21T03:21:55.330Z,100150.38
2022-11-21T03:24:22.232Z,100144.91
2022-11-21T03:26:48.698Z,100162.13
2022-11-21T03:29:15.122Z,100164.06
2022-11-21T03:31:41.609Z,100152.72
2022-11-21T03:34:08.888Z,100153.91
2022-11-21T03:36:35.294Z,100157.88
2022-11-21T03:39:01.895Z,100163.34
2022-11-21T03:41:31.048Z,100150.38
2022-11-21T03:44:05.695Z,100155.84
2022-11-21T03:46:34.339Z,100148.00
2022-11-21T03:49:00.850Z,100150.75
2022-11-21T03:51:28.012Z,100151.13
2022-11-21T03:53:54.585Z,100147.25
2022-11-21T03:56:21.262Z,100147.25
2022-11-21T03:58:47.917Z,100148.00
2022-11-21T04:01:15.171Z,100148.78
2022-11-21T04:03:45.282Z,100155.38
2022-11-21T04:06:14.089Z,100150.34
2022-11-21T04:08:40.911Z,100142.91
2022-11-21T04:11:08.183Z,100142.13
2022-11-21T04:13:35.055Z,100140.94
2022-11-21T04:16:02.209Z,100144.06
2022-11-21T04:18:28.628Z,100144.81
2022-11-21T04:20:59.747Z,100146.75
2022-11-21T04:23:26.723Z,100141.22
2022-11-21T04:25:53.595Z,100138.91
2022-11-21T04:28:20.422Z,100140.94
2022-11-21T04:30:46.922Z,100145.59
2022-11-21T04:33:15.285Z,100151.44
2022-11-21T04:35:43.037Z,100148.69
2022-11-21T04:38:09.767Z,100148.34
2022-11-21T04:40:36.889Z,100148.34
2022-11-21T04:43:04.055Z,100148.78
2022-11-21T04:45:30.980Z,100144.03
2022-11-21T04:47:57.719Z,100159.72
2022-11-21T04:50:24.486Z,100161.22
2022-11-21T04:52:55.778Z,100162.03
2022-11-21T04:55:24.805Z,100149.91
2022-11-21T04:57:51.598Z,100143.59
2022-11-21T05:00:23.967Z,100144.03
2022-11-21T05:02:51.083Z,100154.19
2022-11-21T05:05:17.654Z,100153.75
2022-11-21T05:07:44.162Z,100158.09
2022-11-21T05:10:10.707Z,100167.50
2022-11-21T05:12:57.410Z,100159.72
2022-11-21T05:15:25.088Z,100141.66
2022-11-21T05:17:52.073Z,100137.75
2022-11-21T05:20:19.026Z,100141.59
2022-11-21T05:22:49.899Z,100140.81
2022-11-21T05:25:16.620Z,100137.66
2022-11-21T05:27:43.225Z,100149.38
2022-11-21T05:30:10.963Z,100152.50
2022-11-21T05:32:37.923Z,100148.59
2022-11-21T05:35:04.624Z,100150.97
2022-11-21T05:37:31.042Z,100139.56
2022-11-21T05:39:57.553Z,100158.00
2022-11-21T05:42:44.007Z,100161.06
2022-11-21T05:45:10.757Z,100147.63
2022-11-21T05:47:37.317Z,100161.34
2022-11-21T05:50:04.181Z,100151.13
2022-11-21T05:52:30.632Z,100151.94
2022-11-21T05:54:57.055Z,100140.31
2022-11-21T05:57:23.482Z,100141.53
2022-11-21T05:59:49.905Z,100145.41
2022-11-21T06:02:35.013Z,100135.97
2022-11-21T06:05:01.502Z,100132.06
2022-11-21T06:07:27.984Z,100131.72
2022-11-21T06:09:54.427Z,100136.06
2022-11-21T06:12:25.236Z,100133.34
2022-11-21T06:14:52.410Z,100134.19
2022-11-21T06:17:18.875Z,100129.91
2022-11-21T06:19:45.302Z,100128.75
2022-11-21T06:22:11.715Z,100115.00
2022-11-21T06:24:38.166Z,100126.81
2022-11-21T06:27:04.606Z,100118.22
2022-11-21T06:29:31.074Z,100113.59
2022-11-21T06:31:57.520Z,100117.91
2022-11-21T06:34:26.458Z,100119.06
2022-11-21T06:36:53.406Z,100109.31
2022-11-21T06:39:19.841Z,100106.19
2022-11-21T06:41:51.102Z,100099.06
2022-11-21T06:44:18.769Z,100097.13
2022-11-21T06:46:50.765Z,100095.13
2022-11-21T06:49:17.986Z,100094.38
2022-11-21T06:51:44.463Z,100099.00
2022-11-21T06:54:15.243Z,100097.78
2022-11-21T06:56:43.324Z,100094.28
2022-11-21T06:59:09.826Z,100092.69
2022-11-21T07:01:36.359Z,100090.69
2022-11-21T07:04:02.892Z,100093.41
2022-11-21T07:06:29.336Z,100092.56
2022-11-21T07:11:42.667Z,100107.00
2022-11-21T07:14:09.609Z,100108.59
2022-11-21T07:16:36.663Z,100108.22
2022-11-21T07:19:03.263Z,100116.13
2022-11-21T07:21:29.714Z,100118.53
2022-11-21T07:23:56.145Z,100122.13
2022-11-21T07:26:22.575Z,100122.16
2022-11-21T07:28:49.077Z,100112.00
2022-11-21T07:31:15.753Z,100117.53
2022-11-21T07:33:46.806Z,100121.50
2022-11-21T07:36:13.814Z,100121.50
2022-11-21T07:38:41.606Z,100115.25
2022-11-21T07:41:08.959Z,100112.16
2022-11-21T07:43:35.562Z,100120.00
2022-11-21T07:46:02.036Z,100117.69
2022-11-21T07:48:28.507Z,100109.91
2022-11-21T07:50:54.912Z,100109.53
2022-11-21T07:53:21.578Z,100114.69
2022-11-21T07:55:48.017Z,100111.59
2022-11-21T07:58:16.582Z,100113.16
2022-11-21T08:00:43.341Z,100106.94
2022-11-21T08:03:12.177Z,100098.34
2022-11-21T08:05:43.402Z,100099.94
2022-11-21T08:08:14.126Z,100096.06
2022-11-21T08:10:45.345Z,100094.50
2022-11-21T08:13:12.885Z,100094.91
2022-11-21T08:15:40.174Z,100085.97
2022-11-21T08:18:10.706Z,100082.09
2022-11-21T08:20:37.190Z,100080.56
2022-11-21T08:23:04.050Z,100076.34
2022-11-21T08:25:30.501Z,100074.44
2022-11-21T08:27:58.433Z,100076.84
2022-11-21T08:30:25.413Z,100074.94
2022-11-21T08:32:52.000Z,100074.59
2022-11-21T08:35:19.100Z,100079.75
2022-11-21T08:37:45.570Z,100075.09
2022-11-21T08:40:12.022Z,100072.41
2022-11-21T08:42:38.577Z,100080.28
2022-11-21T08:45:05.795Z,100072.88
2022-11-21T08:47:35.388Z,100071.38
2022-11-21T08:50:07.419Z,100059.25
2022-11-21T08:52:35.435Z,100059.72
2022-11-21T08:55:01.857Z,100068.78
2022-11-21T08:57:28.314Z,100071.97
2022-11-21T08:59:54.800Z,100064.13
2022-11-21T09:02:21.250Z,100056.75
2022-11-21T09:04:47.761Z,100059.13
2022-11-21T09:07:14.360Z,100070.91
2022-11-21T09:09:40.864Z,100065.81
2022-11-21T09:12:07.426Z,100076.00
2022-11-21T09:14:52.197Z,100071.66
2022-11-21T09:17:37.147Z,100065.06
2022-11-21T09:20:03.993Z,100066.69
2022-11-21T09:22:30.448Z,100057.69
2022-11-21T09:24:56.921Z,100057.31
2022-11-21T09:27:23.402Z,100057.75
2022-11-21T09:29:54.095Z,100057.00
2022-11-21T09:32:21.129Z,100052.69
2022-11-21T09:34:47.687Z,100056.66
2022-11-21T09:37:14.199Z,100050.81
2022-11-21T09:39:40.696Z,100046.88
2022-11-21T09:42:28.562Z,100050.44
2022-11-21T09:45:05.127Z,100048.06
2022-11-21T09:47:31.510Z,100045.31
2022-11-21T09:50:07.416Z,100028.47
2022-11-21T09:53:11.806Z,100034.72
2022-11-21T09:55:52.833Z,100043.81
2022-11-21T09:58:28.088Z,100047.72
2022-11-21T10:00:54.757Z,100046.59
2022-11-21T10:03:39.805Z,100049.75
2022-11-21T10:06:18.800Z,100041.53
2022-11-21T10:09:04.008Z,100041.94
2022-11-21T10:11:59.351Z,100022.34
2022-11-21T10:14:53.118Z,100014.13
2022-11-21T10:18:04.456Z,100007.84
2022-11-21T10:20:55.801Z,100005.13
2022-11-21T10:23:41.075Z,99999.63
2022-11-21T10:26:15.098Z,100001.19
2022-11-21T10:28:50.117Z,99983.16
2022-11-21T10:31:18.106Z,99987.13
2022-11-21T10:33:45.554Z,99983.22
2022-11-21T10:36:11.972Z,99975.78
2022-11-21T10:38:41.252Z,99982.91
2022-11-21T10:41:19.666Z,99964.91
2022-11-21T10:44:15.412Z,99962.56
2022-11-21T10:46:55.003Z,99957.44
2022-11-21T10:49:21.648Z,99951.97
2022-11-21T10:52:07.936Z,99946.09
2022-11-21T10:55:05.155Z,99938.66
2022-11-21T10:57:36.962Z,99929.25
2022-11-21T11:00:12.568Z,99933.56
2022-11-21T11:03:00.266Z,99937.91
2022-11-21T11:05:28.461Z,99923.78
2022-11-21T11:08:01.421Z,99922.25
2022-11-21T11:10:28.989Z,99920.28
2022-11-21T11:13:44.501Z,99904.19
2022-11-21T11:16:04.541Z,99905.38
2022-11-21T11:18:34.675Z,99901.81
2022-11-21T11:21:23.550Z,99888.44
2022-11-21T11:23:52.040Z,99890.41
2022-11-21T11:26:30.497Z,99886.06
2022-11-21T11:29:13.326Z,99884.47
2022-11-21T11:31:52.733Z,99877.00
2022-11-21T11:34:19.488Z,99870.69
2022-11-21T11:36:56.247Z,99863.94
2022-11-21T11:39:39.837Z,99859.50
2022-11-21T11:42:43.165Z,99858.22
2022-11-21T11:45:42.669Z,99858.94
2022-11-21T11:48:13.172Z,99854.97
2022-11-21T11:50:50.095Z,99851.88
2022-11-21T11:53:34.907Z,99849.50
2022-11-21T11:56:08.708Z,99838.88
2022-11-21T11:59:00.886Z,99835.28
2022-11-21T12:01:35.667Z,99830.06
2022-11-21T12:04:15.729Z,99826.44
2022-11-21T12:08:20.010Z,99830.34
2022-11-21T12:09:56.173Z,99824.44
2022-11-21T12:12:25.545Z,99813.78
2022-11-21T12:15:22.920Z,99810.22
2022-11-21T12:18:20.790Z,99799.56
2022-11-21T12:20:50.280Z,99803.44
2022-11-21T12:23:18.100Z,99798.69
2022-11-21T12:25:52.907Z,99801.84
2022-11-21T12:28:31.658Z,99792.34
2022-11-21T12:31:18.566Z,99788.34
2022-11-21T12:34:10.008Z,99791.97
2022-11-21T12:37:03.782Z,99789.88
2022-11-21T12:39:49.111Z,99783.03
2022-11-21T12:42:51.578Z,99780.22
2022-11-21T12:45:37.793Z,99768.88
2022-11-21T12:49:04.091Z,99762.88
2022-11-21T12:52:14.158Z,99763.69
2022-11-21T12:54:57.533Z,99752.00
2022-11-21T12:57:57.554Z,99747.19
2022-11-21T13:00:57.439Z,99743.53
2022-11-21T13:04:15.608Z,99740.63
2022-11-21T13:06:44.574Z,99735.06
2022-11-21T13:09:17.741Z,99734.19
2022-11-21T13:11:59.992Z,99719.97
2022-11-21T13:14:40.608Z,99720.47
2022-11-21T13:17:49.572Z,99711.66
2022-11-21T13:20:28.121Z,99704.16
2022-11-21T13:22:59.494Z,99695.59
2022-11-21T13:25:31.911Z,99693.63
2022-11-21T13:28:13.135Z,99696.41
2022-11-21T13:30:49.686Z,99693.63
2022-11-21T13:33:34.436Z,99697.34
2022-11-21T13:36:03.860Z,99695.72
2022-11-21T13:38:30.389Z,99692.75
2022-11-21T13:41:15.110Z,99678.94
2022-11-21T13:43:41.670Z,99670.41
2022-11-21T13:46:08.230Z,99658.13
2022-11-21T13:49:02.066Z,99657.06
2022-11-21T13:51:47.882Z,99662.59
2022-11-21T13:54:29.286Z,99650.88
2022-11-21T13:57:16.173Z,99641.00
2022-11-21T13:59:51.846Z,99631.88
2022-11-21T14:02:33.673Z,99639.00
2022-11-21T14:05:24.691Z,99641.06
2022-11-21T14:07:51.443Z,99621.88
2022-11-21T14:10:25.881Z,99619.22
2022-11-21T14:12:55.420Z,99612.63
2022-11-21T14:15:31.120Z,99601.97
2022-11-21T14:17:59.198Z,99608.53
2022-11-21T14:20:28.757Z,99608.47
2022-11-21T14:22:58.284Z,99609.03
2022-11-21T14:25:31.607Z,99600.25
2022-11-21T14:27:58.832Z,99599.78
2022-11-21T14:30:31.086Z,99594.78
2022-11-21T14:33:14.393Z,99589.25
2022-11-21T14:35:40.961Z,99577.06
2022-11-21T14:38:07.473Z,99572.44
2022-11-21T14:40:34.000Z,99567.25
2022-11-21T14:43:01.182Z,99559.22
2022-11-21T14:45:27.608Z,99561.75
2022-11-21T14:47:54.518Z,99557.31
2022-11-21T14:50:33.494Z,99557.91
2022-11-21T14:53:01.892Z,99558.91
2022-11-21T14:55:31.648Z,99551.56
2022-11-21T14:58:01.416Z,99528.56
2022-11-21T15:00:58.151Z,99515.28
2022-11-21T15:03:24.000Z,99508.41
2022-11-21T15:06:05.792Z,99517.25
2022-11-21T15:09:33.426Z,99511.03
2022-11-21T15:12:07.838Z,99498.63
2022-11-21T15:14:48.522Z,99497.22
2022-11-21T15:17:20.447Z,99495.78
2022-11-21T15:19:47.317Z,99500.56
2022-11-21T15:22:26.254Z,99495.97
2022-11-21T15:25:06.914Z,99490.56
2022-11-21T15:27:34.096Z,99485.50
2022-11-21T15:30:24.982Z,99479.34
2022-11-21T15:33:10.107Z,99482.09
2022-11-21T15:35:39.573Z,99483.72
2022-11-21T15:38:24.329Z,99474.38
2022-11-21T15:41:04.849Z,99455.97
2022-11-21T15:43:44.841Z,99452.44
2022-11-21T15:46:26.235Z,99442.31
2022-11-21T15:48:57.669Z,99421.22
2022-11-21T15:51:51.199Z,99421.97
2022-11-21T15:54:22.464Z,99411.84
2022-11-21T15:56:49.171Z,99401.31
2022-11-21T15:59:15.876Z,99395.06
2022-11-21T16:01:42.853Z,99393.13
2022-11-21T16:04:13.347Z,99401.78
2022-11-21T16:06:39.884Z,99395.88
2022-11-21T16:09:06.384Z,99393.53
2022-11-21T16:11:36.780Z,99396.34
2022-11-21T16:14:05.553Z,99388.50
2022-11-21T16:16:37.281Z,99394.06
2022-11-21T16:19:06.676Z,99383.06
2022-11-21T16:21:33.230Z,99373.25
2022-11-21T16:23:59.708Z,99374.81
2022-11-21T16:26:28.689Z,99369.31
2022-11-21T16:28:56.027Z,99374.06
2022-11-21T16:31:25.312Z,99370.50
2022-11-21T16:33:52.016Z,99365.00
2022-11-21T16:36:23.625Z,99367.75
2022-11-21T16:38:50.342Z,99369.38
2022-11-21T16:41:19.372Z,99362.28
2022-11-21T16:43:49.589Z,99367.03
2022-11-21T16:46:16.926Z,99361.91
2022-11-21T16:48:43.715Z,99361.97
2022-11-21T16:51:20.229Z,99356.09
2022-11-21T16:53:49.081Z,99348.25
2022-11-21T16:56:16.306Z,99342.75
2022-11-21T16:58:42.986Z,99349.06
2022-11-21T17:01:18.154Z,99338.50
2022-11-21T17:03:45.593Z,99333.03
2022-11-21T17:06:13.698Z,99329.94
2022-11-21T17:08:40.692Z,99330.72
2022-11-21T17:11:16.212Z,99323.31
2022-11-21T17:13:44.702Z,99320.97
2022-11-21T17:16:12.476Z,99308.41
2022-11-21T17:18:39.723Z,99299.00
2022-11-21T17:21:12.149Z,99299.03
2022-11-21T17:23:41.769Z,99286.88
2022-11-21T17:26:10.876Z,99285.69
2022-11-21T17:28:41.008Z,99281.38
2022-11-21T17:31:15.919Z,99280.56
2022-11-21T17:33:43.520Z,99286.06
2022-11-21T17:36:14.499Z,99278.97
2022-11-21T17:38:42.471Z,99274.28
2022-11-21T17:41:12.048Z,99281.66
2022-11-21T17:43:38.829Z,99270.25
2022-11-21T17:46:09.966Z,99271.84
2022-11-21T17:48:37.798Z,99265.56
2022-11-21T17:51:12.909Z,99257.72
2022-11-21T17:53:44.581Z,99254.97
2022-11-21T17:56:14.105Z,99245.16
2022-11-21T17:58:41.031Z,99248.31
2022-11-21T18:01:10.512Z,99238.88
2022-11-21T18:03:37.212Z,99232.59
2022-11-21T18:06:09.208Z,99221.59
2022-11-21T18:08:37.764Z,99225.94
2022-11-21T18:11:06.165Z,99216.50
2022-11-21T18:13:33.632Z,99229.50
2022-11-21T18:16:01.868Z,99232.66
2022-11-21T18:18:28.691Z,99240.56
2022-11-21T18:20:55.140Z,99242.91
2022-11-21T18:23:21.641Z,99255.09
2022-11-21T18:25:48.136Z,99255.91
2022-11-21T18:28:14.604Z,99236.66
2022-11-21T18:30:41.159Z,99244.91
2022-11-21T18:33:07.681Z,99253.16
2022-11-21T18:35:34.139Z,99261.00
2022-11-21T18:38:00.642Z,99264.53
2022-11-21T18:40:27.169Z,99266.50
2022-11-21T18:42:53.687Z,99273.94
2022-11-21T18:45:20.443Z,99282.59
2022-11-21T18:47:47.820Z,99281.84
2022-11-21T18:50:15.708Z,99263.41
2022-11-21T18:52:46.432Z,99253.97
2022-11-21T18:55:13.402Z,99227.28
2022-11-21T18:57:39.893Z,99208.50
2022-11-21T19:00:07.357Z,99207.72
2022-11-21T19:02:34.070Z,99201.84
2022-11-21T19:05:00.535Z,99194.78
2022-11-21T19:07:27.134Z,99193.66
2022-11-21T19:09:53.651Z,99189.00
2022-11-21T19:12:20.163Z,99183.50
2022-11-21T19:14:46.662Z,99188.16
2022-11-21T19:17:13.108Z,99203.84
2022-11-21T19:19:39.607Z,99194.06
2022-11-21T19:22:06.346Z,99192.91
2022-11-21T19:24:33.425Z,99196.00
2022-11-21T19:26:59.974Z,99188.97
2022-11-21T19:29:26.913Z,99179.53
2022-11-21T19:31:53.602Z,99173.25
2022-11-21T19:34:20.144Z,99169.31
2022-11-21T19:36:46.654Z,99171.66
2022-11-21T19:39:13.588Z,99159.88
2022-11-21T19:41:40.363Z,99162.22
2022-11-21T19:44:07.000Z,99157.47
2022-11-21T19:46:36.752Z,99156.66
2022-11-21T19:49:04.249Z,99148.00
2022-11-21T19:51:33.561Z,99149.94
2022-11-21T19:54:02.629Z,99138.88
2022-11-21T19:56:29.225Z,99138.84
2022-11-21T19:58:56.902Z,99138.03
2022-11-21T20:01:26.002Z,99129.41
2022-11-21T20:03:55.654Z,99134.41
2022-11-21T20:06:33.748Z,99133.22
2022-11-21T20:09:05.617Z,99130.47
2022-11-21T20:11:33.102Z,99123.41
2022-11-21T20:13:59.724Z,99144.53
2022-11-21T20:16:27.336Z,99133.13
2022-11-21T20:18:57.961Z,99136.69
2022-11-21T20:21:24.816Z,99133.91
2022-11-21T20:23:51.763Z,99126.38
2022-11-21T20:26:20.507Z,99118.91
2022-11-21T20:28:47.594Z,99124.00
2022-11-21T20:31:17.113Z,99116.53
2022-11-21T20:33:45.778Z,99115.31
2022-11-21T20:36:17.284Z,99094.81
2022-11-21T20:38:49.052Z,99080.25
2022-11-21T20:41:15.627Z,99073.47
2022-11-21T20:44:25.168Z,99065.19
2022-11-21T20:46:29.460Z,99056.13
2022-11-21T20:48:56.707Z,99047.03
2022-11-21T20:54:10.434Z,99036.75
2022-11-21T20:56:38.680Z,99034.78
2022-11-21T20:59:07.829Z,99041.44
2022-11-21T21:01:34.447Z,99023.72
2022-11-21T21:04:00.881Z,99036.28
2022-11-21T21:06:27.388Z,99029.22
2022-11-21T21:08:53.856Z,99036.25
2022-11-21T21:11:50.463Z,99024.88
2022-11-21T21:14:09.664Z,99026.03
2022-11-21T21:16:36.312Z,99036.16
2022-11-21T21:19:02.854Z,99026.75
2022-11-21T21:21:33.010Z,99036.97
2022-11-21T21:24:05.629Z,99022.41
2022-11-21T21:26:43.859Z,99015.78
2022-11-21T21:29:12.578Z,99022.06
2022-11-21T21:31:40.230Z,99011.09
2022-11-21T21:34:10.077Z,99024.41
2022-11-21T21:36:36.752Z,99022.06
2022-11-21T21:39:03.966Z,99020.16
2022-11-21T21:41:31.301Z,99021.34
2022-11-21T21:43:58.145Z,99019.72
2022-11-21T21:46:26.677Z,99020.53
2022-11-21T21:48:55.892Z,99015.03
2022-11-21T21:51:27.841Z,99019.72
2022-11-21T21:53:55.904Z,99011.09
2022-11-21T21:56:24.545Z,99014.28
2022-11-21T21:58:51.372Z,99005.66
2022-11-21T22:01:32.217Z,99008.84
2022-11-21T22:04:01.191Z,99009.56
2022-11-21T22:06:28.312Z,99006.38
2022-11-21T22:08:55.867Z,99010.28
2022-11-21T22:11:23.630Z,99011.28
2022-11-21T22:13:59.381Z,99008.81
2022-11-21T22:16:26.277Z,99005.88
2022-11-21T22:18:53.221Z,99001.00
2022-11-21T22:21:20.895Z,98998.03
2022-11-21T22:24:24.372Z,98985.59
2022-11-21T22:26:34.485Z,98982.75
2022-11-21T22:29:00.911Z,98986.56
2022-11-21T22:31:30.134Z,98987.72
2022-11-21T22:33:57.232Z,98986.44
2022-11-21T22:36:23.676Z,98985.56
2022-11-21T22:38:53.962Z,98978.69
2022-11-21T22:41:23.026Z,98980.19
2022-11-21T22:43:51.324Z,98980.19
2022-11-21T22:46:18.037Z,98975.47
2022-11-21T22:48:44.577Z,98977.97
2022-11-21T22:51:15.118Z,98970.97
2022-11-21T22:53:41.601Z,98968.88
2022-11-21T22:56:10.621Z,98964.97
2022-11-21T22:58:39.473Z,98968.44
2022-11-21T23:01:10.412Z,98969.22
2022-11-21T23:03:36.888Z,98973.94
2022-11-21T23:06:05.899Z,98973.44
2022-11-21T23:08:33.468Z,98976.13
2022-11-21T23:11:08.371Z,98962.88
2022-11-21T23:13:35.972Z,98964.47
2022-11-21T23:16:03.928Z,98956.13
2022-11-21T23:18:32.995Z,98959.38
2022-11-21T23:21:00.410Z,98954.13
2022-11-21T23:23:27.637Z,98950.78
2022-11-21T23:25:54.277Z,98940.50
2022-11-21T23:28:20.820Z,98940.13
2022-11-21T23:30:48.987Z,98938.75
2022-11-21T23:33:16.149Z,98934.88
2022-11-21T23:35:43.666Z,98937.28
2022-11-21T23:38:11.063Z,98932.28
2022-11-21T23:40:37.618Z,98926.91
2022-11-21T23:43:04.067Z,98938.34
2022-11-21T23:45:30.686Z,98935.59
2022-11-21T23:47:57.389Z,98923.47
2022-11-21T23:50:23.887Z,98917.56
2022-11-21T23:52:50.485Z,98925.09
2022-11-21T23:55:17.137Z,98911.41
2022-11-21T23:57:48.454Z,98914.59
